Time;durP1;ratioP1;P1;durP2;ratioP2;P2;SDS_P1;SDS_P2;PMS_P1;PMS_P2;Temp;Humidity;BMP_temperature;BMP_pressure;BME280_temperature;BME280_humidity;BME280_pressure;Samples;Min_cycle;Max_cycle;Signal;HPM_P1;HPM_P2
2022/01/31 00:00:17;;;;;;;6.05;1.85;;;;;;;6.06;52.28;101425.88;5027191;28;20033;-78
2022/01/31 00:02:44;;;;;;;5.97;1.88;;;;;;;6.14;52.24;101399.28;5029149;28;20037;-78
2022/01/31 00:05:10;;;;;;;4.28;1.73;;;;;;;6.10;52.96;101381.19;5037747;28;20482;-79
2022/01/31 00:07:36;;;;;;;5.47;1.83;;;;;;;5.90;52.11;101352.66;5028977;28;20044;-79
2022/01/31 00:10:07;;;;;;;6.40;2.08;;;;;;;5.72;52.31;101337.94;5029325;28;20041;-79
2022/01/31 00:12:43;;;;;;;8.20;2.35;;;;;;;5.61;52.65;101325.81;5038086;28;20041;-78
2022/01/31 00:15:09;;;;;;;7.30;2.10;;;;;;;5.82;53.21;101313.97;5034294;28;20034;-78
2022/01/31 00:17:34;;;;;;;4.22;1.40;;;;;;;5.74;53.21;101304.44;5041178;28;20029;-78
2022/01/31 00:20:00;;;;;;;7.88;1.90;;;;;;;5.86;52.18;101284.75;5031327;28;20061;-79
2022/01/31 00:22:25;;;;;;;7.82;2.63;;;;;;;5.94;52.83;101272.78;5030241;28;20042;-79
2022/01/31 00:24:51;;;;;;;7.05;1.83;;;;;;;5.87;52.55;101255.53;5037787;28;20083;-78
2022/01/31 00:27:16;;;;;;;3.92;1.67;;;;;;;6.03;52.13;101246.19;5039675;28;20522;-78
2022/01/31 00:29:41;;;;;;;8.30;2.03;;;;;;;5.88;53.06;101241.81;5039402;28;20098;-79
2022/01/31 00:32:07;;;;;;;7.00;1.67;;;;;;;5.76;53.17;101233.13;5041009;28;20040;-79
2022/01/31 00:34:33;;;;;;;6.25;1.85;;;;;;;5.84;52.80;101229.75;5032553;28;20038;-79
2022/01/31 00:36:59;;;;;;;8.35;1.75;;;;;;;5.67;53.20;101222.75;5035817;28;20033;-79
2022/01/31 00:39:24;;;;;;;6.68;1.67;;;;;;;5.73;53.31;101213.38;5035361;28;20037;-78
2022/01/31 00:41:49;;;;;;;5.35;1.88;;;;;;;5.90;52.59;101204.00;5035519;28;20068;-79
2022/01/31 00:44:30;;;;;;;7.70;2.10;;;;;;;5.76;53.20;101172.13;5041335;28;20029;-78
2022/01/31 00:46:59;;;;;;;5.03;1.67;;;;;;;5.80;52.92;101155.81;5040889;28;20049;-78
2022/01/31 00:51:58;;;;;;;7.68;2.08;;;;;;;5.79;52.83;101146.38;5031821;28;20037;-78
2022/01/31 00:54:24;;;;;;;8.95;2.25;;;;;;;5.94;53.32;101141.28;5035863;28;20029;-79
2022/01/31 00:56:51;;;;;;;8.38;2.28;;;;;;;5.72;52.62;101128.28;5035628;28;20778;-78
2022/01/31 00:59:17;;;;;;;6.50;1.73;;;;;;;5.98;53.09;101129.25;5030791;28;20091;-79
2022/01/31 01:01:43;;;;;;;9.02;1.95;;;;;;;5.69;53.28;101134.28;5029715;28;20110;-79
2022/01/31 01:04:08;;;;;;;6.68;1.70;;;;;;;5.84;53.65;101126.63;5041033;28;20490;-78
2022/01/31 01:06:34;;;;;;;5.05;2.17;;;;;;;5.98;53.57;101129.25;5036727;28;20517;-79
2022/01/31 01:08:59;;;;;;;5.55;1.67;;;;;;;5.91;53.78;101125.81;5034680;28;20033;-78
2022/01/31 01:11:25;;;;;;;4.05;1.38;;;;;;;5.82;53.72;101117.16;5036956;28;20382;-79
2022/01/31 01:13:50;;;;;;;7.57;1.70;;;;;;;5.92;53.46;101122.34;5039112;28;20079;-79
2022/01/31 01:16:16;;;;;;;3.42;1.73;;;;;;;6.10;53.80;101118.97;5032837;28;20040;-79
2022/01/31 01:18:41;;;;;;;11.73;2.00;;;;;;;5.96;53.68;101107.75;5034786;28;20645;-78
2022/01/31 01:21:07;;;;;;;13.38;3.55;;;;;;;6.02;53.64;101098.31;5031822;28;20084;-78
2022/01/31 01:23:32;;;;;;;7.25;1.90;;;;;;;6.02;53.85;101087.13;5037174;28;20598;-78
2022/01/31 01:25:58;;;;;;;8.55;1.75;;;;;;;5.98;53.70;101069.94;5043617;28;20082;-79
2022/01/31 01:28:25;;;;;;;6.30;1.95;;;;;;;5.99;52.88;101061.34;5042221;28;20040;-78
2022/01/31 01:30:51;;;;;;;14.77;2.17;;;;;;;5.96;53.86;101051.88;5046081;28;20042;-78
2022/01/31 01:33:21;;;;;;;7.13;1.98;;;;;;;6.09;52.89;101051.91;5037524;28;20040;-79
2022/01/31 01:35:49;;;;;;;10.50;1.88;;;;;;;6.02;54.33;101040.72;5053214;28;20161;-78
2022/01/31 01:38:17;;;;;;;5.30;1.95;;;;;;;5.96;54.47;101031.25;5038992;28;20024;-79
2022/01/31 01:40:44;;;;;;;6.70;1.83;;;;;;;6.08;53.41;101022.69;5039575;28;20052;-79
2022/01/31 01:43:11;;;;;;;4.55;1.58;;;;;;;6.03;53.41;101022.69;5037938;28;20056;-79
2022/01/31 01:45:38;;;;;;;7.90;2.08;;;;;;;6.20;53.40;101016.69;5033379;28;20038;-78
2022/01/31 01:48:07;;;;;;;7.47;1.83;;;;;;;6.21;53.37;101001.22;5034521;28;20564;-79
2022/01/31 01:50:38;;;;;;;10.52;1.70;;;;;;;6.19;54.54;100990.00;5027666;28;20037;-78
2022/01/31 01:53:05;;;;;;;4.50;1.75;;;;;;;6.21;53.95;100967.69;5038218;28;20052;-79
2022/01/31 01:55:31;;;;;;;9.15;2.50;;;;;;;6.16;54.13;100942.75;5036964;28;20038;-79
2022/01/31 01:57:57;;;;;;;4.05;1.52;;;;;;;6.21;54.03;100925.53;5034960;28;20414;-78
2022/01/31 02:00:27;;;;;;;5.60;1.65;;;;;;;6.30;53.83;100910.06;5029279;28;20406;-79
2022/01/31 02:02:54;;;;;;;6.30;1.48;;;;;;;6.42;53.18;100891.97;5036373;28;20037;-78
2022/01/31 02:05:20;;;;;;;9.73;1.80;;;;;;;6.18;54.45;100887.72;5039985;28;20112;-79
2022/01/31 02:07:46;;;;;;;9.55;2.13;;;;;;;6.30;53.20;100872.22;5043049;28;20041;-79
2022/01/31 02:10:14;;;;;;;5.82;2.00;;;;;;;6.24;53.87;100848.16;5030577;28;20136;-79
2022/01/31 02:12:47;;;;;;;10.73;1.48;;;;;;;6.26;53.57;100843.84;5030793;28;20064;-79
2022/01/31 02:15:14;;;;;;;5.83;1.57;;;;;;;6.38;53.48;100829.19;5026009;28;20039;-78
2022/01/31 02:17:40;;;;;;;9.93;1.73;;;;;;;6.38;53.51;100826.63;5031683;28;20033;-78
2022/01/31 02:20:09;;;;;;;7.70;2.08;;;;;;;6.40;54.50;100826.59;5034684;28;20159;-79
2022/01/31 02:22:38;;;;;;;5.47;1.63;;;;;;;6.42;54.22;100815.44;5027387;28;20033;-78
2022/01/31 02:25:04;;;;;;;4.63;1.70;;;;;;;6.33;54.89;100791.38;5045139;28;20053;-79
2022/01/31 02:27:32;;;;;;;5.20;1.48;;;;;;;6.32;54.74;100785.34;5028810;28;20066;-78
2022/01/31 02:29:58;;;;;;;7.95;1.42;;;;;;;6.38;54.71;100781.91;5028841;28;20042;-78
2022/01/31 02:32:24;;;;;;;4.20;1.80;;;;;;;6.44;55.13;100769.84;5051013;28;20463;-79
2022/01/31 02:34:50;;;;;;;4.55;1.63;;;;;;;6.28;54.96;100747.53;5033535;28;20037;-79
2022/01/31 02:37:19;;;;;;;10.68;1.80;;;;;;;6.29;53.88;100735.50;5044945;28;20523;-78
2022/01/31 02:39:45;;;;;;;5.03;1.42;;;;;;;6.53;54.70;100730.25;5032048;28;20029;-79
2022/01/31 02:42:11;;;;;;;9.85;2.03;;;;;;;6.38;54.15;100719.97;5031657;28;20430;-75
2022/01/31 02:44:41;;;;;;;10.20;2.30;;;;;;;6.45;53.62;100698.44;5035241;28;20033;-79
2022/01/31 02:47:15;;;;;;;7.53;1.40;;;;;;;6.54;54.05;100680.38;5032827;28;20038;-79
2022/01/31 02:50:05;;;;;;;6.32;1.52;;;;;;;6.30;54.85;100678.75;5038524;28;20029;-79
2022/01/31 02:52:31;;;;;;;6.18;1.80;;;;;;;6.61;53.61;100668.25;5031475;28;20497;-79
2022/01/31 02:54:57;;;;;;;3.78;1.40;;;;;;;6.40;54.20;100666.63;5030668;28;20550;-79
2022/01/31 02:57:23;;;;;;;7.32;1.92;;;;;;;6.43;55.31;100676.94;5031700;28;20414;-79
2022/01/31 02:59:49;;;;;;;4.50;1.60;;;;;;;6.50;55.25;100661.47;5035160;28;20025;-79
2022/01/31 03:02:14;;;;;;;4.78;1.75;;;;;;;6.38;57.80;100655.47;5038230;28;20024;-79
2022/01/31 03:04:41;;;;;;;7.88;1.95;;;;;;;6.46;57.47;100651.97;5032079;28;20037;-79
2022/01/31 03:07:06;;;;;;;6.32;1.83;;;;;;;6.41;59.32;100640.84;5036422;28;20045;-79
2022/01/31 03:09:32;;;;;;;7.95;1.30;;;;;;;6.50;58.95;100642.53;5036710;28;20045;-79
2022/01/31 03:11:58;;;;;;;4.28;1.70;;;;;;;6.37;61.71;100622.78;5030390;28;20048;-79
2022/01/31 03:14:23;;;;;;;7.72;1.38;;;;;;;6.16;61.32;100612.63;5031529;28;20071;-79
2022/01/31 03:16:49;;;;;;;7.80;1.50;;;;;;;6.58;61.85;100612.38;5034488;28;20582;-79
2022/01/31 03:19:16;;;;;;;4.20;1.45;;;;;;;6.14;63.93;100615.19;5045021;28;20041;-79
2022/01/31 03:21:42;;;;;;;3.63;0.93;;;;;;;6.42;64.29;100610.75;5034625;28;20118;-79
2022/01/31 03:24:09;;;;;;;9.82;1.58;;;;;;;6.29;67.15;100603.94;5032858;28;20573;-78
2022/01/31 03:26:35;;;;;;;5.53;1.48;;;;;;;6.11;66.75;100589.44;5032044;28;20025;-79
2022/01/31 03:29:01;;;;;;;4.30;1.10;;;;;;;6.37;66.08;100587.53;5028494;28;20034;-79
2022/01/31 03:31:26;;;;;;;3.55;1.02;;;;;;;6.19;67.25;100589.41;5036451;28;20025;-78
2022/01/31 03:33:53;;;;;;;3.05;1.10;;;;;;;5.97;68.26;100580.91;5029701;28;20453;-78
2022/01/31 03:36:20;;;;;;;3.08;1.45;;;;;;;6.12;68.41;100579.97;5035938;28;20037;-79
2022/01/31 03:38:46;;;;;;;4.05;1.40;;;;;;;6.08;71.06;100573.97;5033258;28;20099;-78
2022/01/31 03:41:13;;;;;;;6.30;1.33;;;;;;;5.88;69.57;100565.50;5033046;28;20026;-79
2022/01/31 03:43:39;;;;;;;3.70;1.08;;;;;;;6.09;68.99;100560.22;5033905;28;20061;-79
2022/01/31 03:46:06;;;;;;;7.05;1.40;;;;;;;6.21;68.95;100549.84;5031955;28;20117;-79
2022/01/31 03:48:33;;;;;;;3.05;1.15;;;;;;;6.17;68.87;100542.09;5031573;28;20057;-79
2022/01/31 03:50:59;;;;;;;4.03;1.00;;;;;;;5.99;69.34;100537.94;5032482;28;20049;-78
2022/01/31 03:53:26;;;;;;;7.30;1.30;;;;;;;6.12;68.41;100528.41;5029571;28;20135;-79
2022/01/31 03:55:51;;;;;;;5.53;1.13;;;;;;;5.92;69.43;100513.06;5026591;28;20072;-79
2022/01/31 03:58:17;;;;;;;5.00;0.90;;;;;;;6.14;68.48;100511.19;5033690;28;20069;-79
2022/01/31 04:00:43;;;;;;;4.38;0.88;;;;;;;6.09;67.92;100512.94;5032907;28;20029;-78
2022/01/31 04:03:08;;;;;;;2.97;1.00;;;;;;;6.15;68.76;100521.50;5032658;28;20044;-79
2022/01/31 04:05:35;;;;;;;2.70;0.80;;;;;;;6.11;67.23;100516.34;5035445;28;20029;-79
2022/01/31 04:08:01;;;;;;;1.60;1.10;;;;;;;6.01;69.09;100511.25;5041784;28;20034;-79
2022/01/31 04:10:26;;;;;;;4.13;0.75;;;;;;;6.03;68.38;100503.53;5033316;28;20084;-78
2022/01/31 04:12:52;;;;;;;5.55;1.02;;;;;;;6.15;69.06;100500.00;5037699;28;20033;-79
2022/01/31 04:15:18;;;;;;;4.20;0.68;;;;;;;5.97;70.14;100512.16;5032147;28;20042;-79
2022/01/31 04:17:45;;;;;;;4.30;1.40;;;;;;;6.10;69.34;100509.50;5039842;28;20047;-78
2022/01/31 04:20:11;;;;;;;3.17;0.95;;;;;;;6.19;70.78;100499.13;5037700;28;20495;-79
2022/01/31 04:22:44;;;;;;;2.97;0.65;;;;;;;6.12;69.58;100500.91;5037380;28;20132;-79
2022/01/31 04:25:27;;;;;;;1.25;0.57;;;;;;;6.13;67.80;100496.59;5039856;28;20029;-78
2022/01/31 04:28:01;;;;;;;0.77;0.50;;;;;;;6.00;68.54;100493.25;5032553;28;20045;-79
2022/01/31 04:30:26;;;;;;;3.15;0.60;;;;;;;5.85;68.84;100491.63;5022479;28;20037;-79
2022/01/31 04:32:52;;;;;;;1.88;0.70;;;;;;;6.09;69.28;100484.56;5035559;28;20120;-78
2022/01/31 04:35:17;;;;;;;2.42;0.63;;;;;;;5.99;69.48;100488.94;5038405;28;20025;-79
2022/01/31 04:37:42;;;;;;;0.88;0.43;;;;;;;6.05;68.21;100483.75;5039712;28;20029;-79
2022/01/31 04:40:13;;;;;;;1.42;0.50;;;;;;;6.13;69.44;100479.38;5037042;28;20041;-79
2022/01/31 04:42:42;;;;;;;1.35;0.43;;;;;;;5.94;69.66;100465.78;5033658;28;20029;-78
2022/01/31 04:45:08;;;;;;;1.60;0.40;;;;;;;6.17;68.76;100473.34;5033648;28;20402;-78
2022/01/31 04:47:33;;;;;;;0.73;0.73;;;;;;;6.19;68.68;100465.59;5031669;28;20033;-79
2022/01/31 04:49:59;;;;;;;0.45;0.30;;;;;;;5.83;69.89;100452.09;5040314;28;20033;-79
2022/01/31 04:52:24;;;;;;;0.40;0.40;;;;;;;5.97;69.13;100449.44;5044409;28;20040;-79
2022/01/31 04:54:49;;;;;;;0.30;0.30;;;;;;;5.98;69.12;100449.41;5032571;28;20029;-78
2022/01/31 04:57:16;;;;;;;1.23;0.80;;;;;;;5.88;69.06;100457.22;5028672;28;20045;-78
2022/01/31 04:59:43;;;;;;;0.68;0.50;;;;;;;5.48;69.85;100459.19;5039627;28;20033;-78
2022/01/31 05:02:09;;;;;;;0.47;0.40;;;;;;;5.81;67.84;100453.84;5038697;28;20029;-78
2022/01/31 05:04:34;;;;;;;0.40;0.40;;;;;;;5.84;68.40;100458.97;5029252;28;20060;-78
2022/01/31 05:07:00;;;;;;;0.68;0.60;;;;;;;6.02;68.51;100463.13;5030974;28;20087;-78
2022/01/31 05:09:25;;;;;;;3.33;0.40;;;;;;;5.93;68.10;100461.47;5041592;28;20049;-78
2022/01/31 05:11:51;;;;;;;1.45;0.50;;;;;;;6.05;68.52;100442.47;5038661;28;20049;-78
2022/01/31 05:14:17;;;;;;;1.33;0.57;;;;;;;6.02;68.97;100455.41;5035996;28;20033;-78
2022/01/31 05:16:43;;;;;;;6.00;0.70;;;;;;;6.03;69.25;100446.81;5033034;28;20037;-78
2022/01/31 05:19:09;;;;;;;1.48;0.50;;;;;;;6.04;68.43;100438.19;5052332;28;20383;-79
2022/01/31 05:21:34;;;;;;;1.83;0.68;;;;;;;6.28;67.98;100438.00;5042696;28;20115;-78
2022/01/31 05:24:00;;;;;;;3.45;0.77;;;;;;;5.88;69.06;100444.34;5033510;28;20041;-78
2022/01/31 05:26:25;;;;;;;2.10;1.00;;;;;;;6.29;68.36;100442.28;5036341;28;20041;-74
2022/01/31 05:28:51;;;;;;;4.10;1.05;;;;;;;6.19;68.93;100439.81;5036669;28;20107;-78
2022/01/31 05:31:17;;;;;;;2.33;1.20;;;;;;;6.31;68.16;100434.53;5036815;28;20026;-78
2022/01/31 05:33:42;;;;;;;3.85;1.10;;;;;;;6.21;68.32;100420.88;5029492;28;20161;-76
2022/01/31 05:36:08;;;;;;;1.92;1.00;;;;;;;6.16;68.38;100409.72;5038089;28;20125;-76
2022/01/31 05:38:37;;;;;;;3.13;1.15;;;;;;;6.08;68.95;100401.22;5039247;28;20480;-76
2022/01/31 05:41:06;;;;;;;1.50;1.15;;;;;;;6.24;68.47;100401.94;5040609;28;20041;-75
2022/01/31 05:43:31;;;;;;;2.95;1.00;;;;;;;6.38;68.05;100394.91;5034698;28;20029;-76
2022/01/31 05:45:57;;;;;;;3.30;1.25;;;;;;;5.98;69.40;100409.88;5036054;28;20084;-76
2022/01/31 05:48:22;;;;;;;4.22;1.38;;;;;;;6.24;68.30;100402.78;5035158;28;20399;-76
2022/01/31 05:50:48;;;;;;;4.28;1.30;;;;;;;5.91;69.33;100408.22;5039275;28;20020;-76
2022/01/31 05:53:14;;;;;;;3.95;1.35;;;;;;;6.37;67.97;100395.78;5030247;28;20410;-76
2022/01/31 05:55:40;;;;;;;3.67;1.20;;;;;;;6.18;68.12;100389.09;5035945;28;20059;-75
2022/01/31 05:58:06;;;;;;;3.13;1.15;;;;;;;6.32;67.55;100382.06;5034248;28;20047;-76
2022/01/31 06:00:32;;;;;;;3.78;1.83;;;;;;;6.12;68.07;100391.72;5039540;28;20176;-76
2022/01/31 06:02:58;;;;;;;6.10;1.20;;;;;;;5.83;68.92;100408.28;5031766;28;20043;-76
2022/01/31 06:05:25;;;;;;;4.25;1.55;;;;;;;6.10;70.33;100398.63;5029586;28;20036;-75
2022/01/31 06:07:51;;;;;;;5.20;1.88;;;;;;;6.31;67.87;100400.97;5030798;28;20030;-75
2022/01/31 06:10:17;;;;;;;3.13;1.33;;;;;;;6.09;67.90;100405.50;5041461;28;20044;-76
2022/01/31 06:12:42;;;;;;;4.97;1.77;;;;;;;6.22;68.41;100404.50;5038592;28;20110;-76
2022/01/31 06:15:08;;;;;;;8.32;1.70;;;;;;;6.31;67.64;100404.44;5032928;28;20041;-76
2022/01/31 06:17:34;;;;;;;4.00;1.60;;;;;;;6.19;67.59;100407.13;5042939;28;20024;-76
2022/01/31 06:20:00;;;;;;;5.82;1.45;;;;;;;6.22;67.77;100391.63;5033597;28;20038;-76
2022/01/31 06:22:25;;;;;;;7.43;1.60;;;;;;;6.24;68.16;100386.47;5031214;28;20409;-76
2022/01/31 06:24:50;;;;;;;2.92;1.27;;;;;;;6.32;67.54;100382.94;5048296;28;20037;-76
2022/01/31 06:27:16;;;;;;;7.18;1.70;;;;;;;6.42;66.16;100379.41;5040103;28;20559;-76
2022/01/31 06:29:42;;;;;;;3.70;1.30;;;;;;;6.48;65.99;100371.59;5046429;28;20029;-76
2022/01/31 06:32:08;;;;;;;11.07;1.92;;;;;;;6.37;67.40;100385.44;5036258;28;20037;-76
2022/01/31 06:34:34;;;;;;;9.93;2.05;;;;;;;6.27;66.19;100395.03;5030315;28;20410;-75
2022/01/31 06:37:02;;;;;;;4.40;1.17;;;;;;;6.41;65.08;100374.25;5038881;28;20057;-76
2022/01/31 06:39:29;;;;;;;4.60;1.10;;;;;;;6.37;64.70;100385.44;5034852;28;20029;-76
2022/01/31 06:41:54;;;;;;;3.13;1.20;;;;;;;6.44;64.23;100362.16;5036538;28;20098;-76
2022/01/31 06:44:20;;;;;;;4.90;1.35;;;;;;;6.45;64.10;100373.34;5030630;28;20445;-76
2022/01/31 06:46:45;;;;;;;3.67;1.20;;;;;;;6.41;63.79;100366.50;5034717;28;20447;-76
2022/01/31 06:49:11;;;;;;;7.10;1.13;;;;;;;6.47;64.22;100366.44;5029890;28;20030;-78
2022/01/31 06:51:36;;;;;;;5.20;1.23;;;;;;;6.42;65.12;100376.81;5030506;28;20068;-78
2022/01/31 06:54:02;;;;;;;4.45;1.40;;;;;;;6.61;63.74;100358.56;5032205;28;20041;-78
2022/01/31 06:56:34;;;;;;;6.05;2.08;;;;;;;6.50;63.54;100361.28;5031105;28;20065;-78
2022/01/31 06:59:02;;;;;;;4.22;1.35;;;;;;;6.17;64.30;100374.47;5041230;28;20406;-79
2022/01/31 07:01:28;;;;;;;7.15;1.60;;;;;;;6.47;64.24;100361.28;5033569;28;20029;-78
2022/01/31 07:03:54;;;;;;;2.20;1.13;;;;;;;6.55;62.96;100362.06;5033706;28;20475;-78
2022/01/31 07:06:21;;;;;;;8.57;1.75;;;;;;;6.49;63.31;100357.84;5035529;28;20056;-78
2022/01/31 07:08:46;;;;;;;4.40;1.60;;;;;;;6.72;62.69;100339.53;5035345;28;20029;-78
2022/01/31 07:11:17;;;;;;;4.50;1.25;;;;;;;6.66;62.42;100343.91;5039520;28;20021;-78
2022/01/31 07:13:47;;;;;;;3.55;1.17;;;;;;;6.53;62.97;100335.44;5030659;28;20047;-79
2022/01/31 07:16:12;;;;;;;9.75;1.60;;;;;;;6.66;62.98;100343.91;5019652;28;20040;-78
2022/01/31 07:18:38;;;;;;;6.28;1.30;;;;;;;6.47;63.61;100331.22;5040683;28;20487;-79
2022/01/31 07:21:05;;;;;;;7.30;1.40;;;;;;;6.42;64.89;100339.84;5038745;28;20119;-78
2022/01/31 07:24:02;;;;;;;5.72;1.52;;;;;;;6.54;65.11;100356.06;5035258;28;20048;-78
2022/01/31 07:26:24;;;;;;;7.20;1.40;;;;;;;6.31;68.73;100333.91;5026885;28;20033;-78
2022/01/31 07:28:50;;;;;;;7.97;1.55;;;;;;;6.24;70.09;100340.03;5038840;28;20037;-78
2022/01/31 07:31:16;;;;;;;5.75;1.30;;;;;;;6.10;70.46;100339.31;5037614;28;20040;-78
2022/01/31 07:33:42;;;;;;;5.10;1.23;;;;;;;6.21;71.00;100332.31;5032252;28;20127;-78
2022/01/31 07:36:08;;;;;;;5.18;2.63;;;;;;;6.25;70.34;100342.59;5039360;28;20033;-78
2022/01/31 07:38:34;;;;;;;5.20;1.55;;;;;;;6.02;69.88;100342.81;5042238;28;20473;-78
2022/01/31 07:41:00;;;;;;;6.03;1.40;;;;;;;6.09;71.36;100340.19;5043276;28;20029;-78
2022/01/31 07:43:26;;;;;;;8.43;1.30;;;;;;;6.10;69.23;100352.22;5032667;28;20025;-78
2022/01/31 07:45:51;;;;;;;5.63;1.40;;;;;;;5.72;69.74;100343.06;5034957;28;20053;-78
2022/01/31 07:48:17;;;;;;;5.55;1.33;;;;;;;5.97;70.46;100352.31;5036894;28;20427;-78
2022/01/31 07:50:42;;;;;;;3.45;1.10;;;;;;;5.78;70.67;100358.50;5042875;28;20498;-78
2022/01/31 07:53:09;;;;;;;3.08;1.15;;;;;;;5.65;72.49;100387.81;5038135;28;20029;-78
2022/01/31 07:55:35;;;;;;;6.72;1.35;;;;;;;5.60;74.11;100375.81;5038872;28;20478;-78
2022/01/31 07:58:01;;;;;;;4.28;1.20;;;;;;;5.66;73.46;100380.91;5032437;28;20051;-78
2022/01/31 08:00:27;;;;;;;6.28;1.67;;;;;;;5.78;73.94;100376.53;5036236;28;20110;-78
2022/01/31 08:02:53;;;;;;;2.83;1.20;;;;;;;5.32;75.01;100409.50;5032149;28;20033;-78
2022/01/31 08:05:21;;;;;;;5.30;1.30;;;;;;;5.71;74.95;100395.47;5035590;28;20450;-78
2022/01/31 08:07:48;;;;;;;3.20;1.38;;;;;;;5.70;74.92;100385.19;5038024;28;20076;-78
2022/01/31 08:10:15;;;;;;;5.18;1.90;;;;;;;5.92;75.68;100382.41;5027091;28;20060;-78
2022/01/31 08:12:42;;;;;;;7.28;1.95;;;;;;;5.86;74.61;100384.22;5037250;28;20033;-78
2022/01/31 08:15:13;;;;;;;5.55;1.40;;;;;;;5.78;73.12;100373.09;5036533;28;20041;-78
2022/01/31 08:17:39;;;;;;;5.75;1.63;;;;;;;5.44;74.24;100368.16;5034533;28;20382;-78
2022/01/31 08:20:05;;;;;;;4.63;0.93;;;;;;;5.65;74.44;100369.78;5038722;28;20056;-79
2022/01/31 08:22:30;;;;;;;7.00;1.63;;;;;;;5.86;72.61;100363.59;5042079;28;20405;-78
2022/01/31 08:24:56;;;;;;;4.28;1.30;;;;;;;5.91;74.02;100370.41;5032355;28;20061;-79
2022/01/31 08:27:22;;;;;;;5.20;1.10;;;;;;;5.66;73.31;100361.16;5049136;28;20042;-78
2022/01/31 08:29:48;;;;;;;6.45;2.13;;;;;;;5.76;72.18;100362.81;5035833;28;20041;-78
2022/01/31 08:32:32;;;;;;;5.90;1.40;;;;;;;5.99;73.53;100362.59;5041386;28;20387;-78
2022/01/31 08:37:42;;;;;;;8.50;2.13;;;;;;;5.86;73.30;100358.44;5028954;28;20623;-78
2022/01/31 08:40:08;;;;;;;7.40;1.88;;;;;;;5.79;71.03;100361.94;5035965;28;20040;-78
2022/01/31 08:42:34;;;;;;;12.25;2.28;;;;;;;5.66;73.45;100356.00;5036335;28;20926;-79
2022/01/31 08:44:59;;;;;;;4.43;1.60;;;;;;;5.62;71.29;100374.09;5039140;28;20044;-78
2022/01/31 08:47:25;;;;;;;9.23;1.52;;;;;;;5.67;71.59;100355.16;5032675;28;20111;-78
2022/01/31 08:49:50;;;;;;;7.20;1.50;;;;;;;5.85;72.37;100365.31;5040799;28;20048;-78
2022/01/31 08:52:16;;;;;;;7.80;1.38;;;;;;;5.74;71.99;100368.84;5044662;28;20072;-78
2022/01/31 08:54:41;;;;;;;5.13;1.05;;;;;;;5.78;70.83;100347.31;5032359;28;20154;-78
2022/01/31 08:57:08;;;;;;;2.83;1.20;;;;;;;5.75;73.27;100355.06;5036597;28;20135;-79
2022/01/31 08:59:33;;;;;;;2.90;0.88;;;;;;;5.64;70.78;100367.19;5034198;28;20513;-78
2022/01/31 09:02:10;;;;;;;3.50;1.30;;;;;;;5.32;72.93;100354.53;5043090;28;20041;-78
2022/01/31 09:04:47;;;;;;;4.32;1.27;;;;;;;5.66;71.19;100342.25;5033006;28;20030;-78
2022/01/31 09:07:19;;;;;;;5.07;1.10;;;;;;;5.41;72.55;100354.47;5028441;28;20503;-78
2022/01/31 09:09:49;;;;;;;4.70;1.33;;;;;;;5.72;71.17;100355.97;5026983;28;20045;-78
2022/01/31 09:12:16;;;;;;;5.90;1.30;;;;;;;5.76;71.05;100361.94;5033521;28;20163;-78
2022/01/31 09:14:42;;;;;;;6.25;1.50;;;;;;;5.57;71.25;100361.22;5041786;28;20429;-78
2022/01/31 09:17:08;;;;;;;5.13;1.23;;;;;;;5.58;72.02;100350.06;5037793;28;20029;-79
2022/01/31 09:19:33;;;;;;;5.03;1.42;;;;;;;5.68;72.00;100336.25;5029405;28;20041;-78
2022/01/31 09:22:01;;;;;;;7.05;1.17;;;;;;;5.67;72.95;100362.03;5040493;28;20045;-78
2022/01/31 09:24:27;;;;;;;6.03;1.80;;;;;;;5.47;72.36;100347.53;5029549;28;20120;-78
2022/01/31 09:26:52;;;;;;;9.30;1.50;;;;;;;5.44;73.74;100339.84;5037386;28;20553;-78
2022/01/31 09:29:18;;;;;;;8.07;1.33;;;;;;;5.55;72.65;100349.22;5038087;28;20052;-78
2022/01/31 09:31:44;;;;;;;5.78;1.40;;;;;;;5.58;73.78;100357.78;5041931;28;20040;-78
2022/01/31 09:34:10;;;;;;;4.32;1.33;;;;;;;5.27;74.11;100340.81;5031447;28;20033;-78
2022/01/31 09:36:35;;;;;;;3.90;1.30;;;;;;;5.25;72.87;100358.00;5033367;28;20498;-78
2022/01/31 09:39:01;;;;;;;9.00;1.52;;;;;;;5.48;73.37;100340.69;5033779;28;20492;-78
2022/01/31 09:41:27;;;;;;;2.15;1.02;;;;;;;5.49;73.50;100329.53;5032826;28;20108;-79
2022/01/31 09:48:56;;;;;;;4.28;1.27;;;;;;;5.67;72.07;100331.09;5031034;28;20038;-78
2022/01/31 09:51:25;;;;;;;4.63;1.05;;;;;;;5.41;71.26;100344.19;5033655;28;20091;-78
2022/01/31 09:54:00;;;;;;;5.63;1.35;;;;;;;5.45;73.12;100323.53;5034790;28;20029;-78
2022/01/31 09:56:46;;;;;;;5.35;1.35;;;;;;;5.56;71.29;100327.75;5032837;28;20029;-78
2022/01/31 09:59:13;;;;;;;5.28;1.20;;;;;;;5.33;72.03;100333.91;5038680;28;20040;-79
2022/01/31 10:01:50;;;;;;;5.28;2.33;;;;;;;5.30;71.41;100322.78;5032626;28;20112;-78
2022/01/31 10:04:24;;;;;;;6.53;1.25;;;;;;;5.65;71.40;100330.25;5029218;28;20449;-78
2022/01/31 10:06:52;;;;;;;5.95;1.40;;;;;;;5.53;72.90;100307.16;5037259;28;20068;-79
2022/01/31 10:09:19;;;;;;;5.88;1.23;;;;;;;5.34;73.76;100330.47;5035678;28;20564;-78
2022/01/31 10:11:51;;;;;;;7.28;1.20;;;;;;;5.61;73.53;100316.53;5028925;28;20103;-78
2022/01/31 10:17:36;;;;;;;6.60;1.50;;;;;;;5.53;72.05;100344.09;5028487;28;20406;-78
2022/01/31 10:20:25;;;;;;;7.82;1.70;;;;;;;5.60;73.16;100329.44;5037706;28;20041;-78
2022/01/31 10:22:51;;;;;;;4.53;2.05;;;;;;;5.09;74.45;100343.53;5040186;28;20076;-79
2022/01/31 10:25:19;;;;;;;5.43;1.20;;;;;;;5.02;74.24;100358.16;5026909;28;20044;-78
2022/01/31 10:27:49;;;;;;;12.73;2.05;;;;;;;5.43;72.78;100339.88;5030957;28;20037;-78
2022/01/31 10:30:24;;;;;;;6.43;1.38;;;;;;;5.23;73.42;100342.59;5030811;28;20038;-78
2022/01/31 10:32:53;;;;;;;;;;;;;;;5.31;72.78;100338.22;5031672;28;20231;-78
2022/01/31 10:35:31;;;;;;;3.28;1.00;;;;;;;5.26;72.96;100316.81;5037870;28;20266;-78
2022/01/31 10:38:06;;;;;;;4.22;1.80;;;;;;;5.19;73.06;100351.19;5036011;28;20029;-78
2022/01/31 10:46:05;;;;;;;6.63;1.27;;;;;;;5.12;73.31;100370.09;5037252;28;20079;-78
2022/01/31 10:53:59;;;;;;;8.52;1.25;;;;;;;4.89;75.16;100362.50;5037252;28;20033;-78
2022/01/31 10:56:35;;;;;;;5.95;1.50;;;;;;;4.91;76.27;100359.94;5028139;28;20043;-78
2022/01/31 10:59:04;;;;;;;5.95;1.55;;;;;;;4.85;75.04;100363.34;5034039;28;20391;-78
2022/01/31 11:01:30;;;;;;;3.28;1.02;;;;;;;5.00;74.09;100370.16;5034252;28;20521;-78
2022/01/31 11:04:00;;;;;;;3.97;1.05;;;;;;;5.21;75.08;100364.03;5034664;28;20048;-78
2022/01/31 11:06:26;;;;;;;10.15;1.70;;;;;;;5.18;74.14;100358.91;5037457;28;20029;-78
2022/01/31 11:08:52;;;;;;;6.38;1.45;;;;;;;5.15;75.95;100349.47;5015465;28;20033;-78
2022/01/31 11:11:21;;;;;;;3.90;1.10;;;;;;;5.08;76.40;100358.13;5038666;28;20029;-78
2022/01/31 11:13:48;;;;;;;6.10;2.70;;;;;;;4.99;76.62;100354.72;5032862;28;20029;-78
2022/01/31 11:16:14;;;;;;;10.70;1.50;;;;;;;5.06;76.52;100371.88;5030222;28;20033;-78
2022/01/31 11:18:43;;;;;;;3.47;1.25;;;;;;;4.73;77.49;100376.25;5029693;28;20072;-78
2022/01/31 11:21:08;;;;;;;6.93;1.02;;;;;;;5.20;74.61;100377.78;5026703;28;20044;-78
2022/01/31 11:23:41;;;;;;;5.65;1.13;;;;;;;4.97;75.57;100377.06;5041984;28;20016;-78
2022/01/31 11:26:09;;;;;;;6.70;1.52;;;;;;;5.17;76.66;100400.97;5030485;28;20045;-78
2022/01/31 11:28:38;;;;;;;4.35;1.63;;;;;;;5.13;74.73;100391.53;5036160;28;20099;-78
2022/01/31 11:31:04;;;;;;;9.13;1.48;;;;;;;4.59;75.38;100439.78;5035186;28;20049;-78
2022/01/31 11:33:30;;;;;;;6.55;0.80;;;;;;;4.95;75.92;100391.63;5040675;28;20033;-78
2022/01/31 11:35:56;;;;;;;5.03;1.20;;;;;;;5.13;76.71;100399.28;5032808;28;20032;-77
2022/01/31 11:38:22;;;;;;;9.90;1.40;;;;;;;4.99;75.29;100417.34;5033029;28;20030;-78
2022/01/31 11:40:48;;;;;;;9.63;1.90;;;;;;;5.03;76.60;100402.75;5026165;28;20065;-78
2022/01/31 11:43:16;;;;;;;6.60;1.23;;;;;;;4.80;77.08;100424.28;5037629;28;20029;-78
2022/01/31 11:45:44;;;;;;;3.53;0.98;;;;;;;4.88;76.05;100447.44;5035418;28;20037;-78
2022/01/31 11:48:24;;;;;;;2.83;1.15;;;;;;;4.82;76.27;100421.72;5029004;28;20043;-78
2022/01/31 11:50:53;;;;;;;11.65;1.17;;;;;;;4.80;77.46;100439.72;5037248;28;20445;-77
2022/01/31 11:53:31;;;;;;;7.22;1.00;;;;;;;4.85;76.83;100430.25;5026254;28;20129;-78
2022/01/31 11:56:05;;;;;;;5.30;1.13;;;;;;;4.80;77.22;100444.88;5027526;28;20103;-78
2022/01/31 11:58:42;;;;;;;6.82;1.50;;;;;;;4.89;77.69;100439.69;5027531;28;20065;-78